createdAt,value
2019-04-25T00:00:01.952Z,1.30
2019-04-25T00:02:38.227Z,0.93
2019-04-25T00:05:11.234Z,2.00
2019-04-25T00:07:42.547Z,1.00
2019-04-25T00:10:16.548Z,1.00
2019-04-25T00:12:48.063Z,1.00
2019-04-25T00:15:18.625Z,0.67
2019-04-25T00:17:52.639Z,0.70
2019-04-25T00:20:23.301Z,0.70
2019-04-25T00:23:16.271Z,1.00
2019-04-25T00:25:59.081Z,0.80
2019-04-25T00:28:33.378Z,0.60
2019-04-25T00:31:04.674Z,0.67
2019-04-25T00:33:37.192Z,0.50
2019-04-25T00:36:07.208Z,0.77
2019-04-25T00:38:37.419Z,1.30
2019-04-25T00:41:09.520Z,0.70
2019-04-25T00:43:39.433Z,0.80
2019-04-25T00:46:09.538Z,0.80
2019-04-25T00:48:39.476Z,0.60
2019-04-25T00:51:11.820Z,0.53
2019-04-25T00:53:43.427Z,0.87
2019-04-25T00:56:13.893Z,0.90
2019-04-25T00:59:02.012Z,0.83
2019-04-25T01:01:58.345Z,0.80
2019-04-25T01:04:29.298Z,0.83
2019-04-25T01:07:01.521Z,1.10
2019-04-25T01:09:32.303Z,1.03
2019-04-25T01:12:04.134Z,0.97
2019-04-25T01:14:34.065Z,1.10
2019-04-25T01:17:04.415Z,1.00
2019-04-25T01:19:34.625Z,1.00
2019-04-25T01:22:05.040Z,0.83
2019-04-25T01:24:34.786Z,0.70
2019-04-25T01:27:13.516Z,0.80
2019-04-25T01:29:44.501Z,0.97
2019-04-25T01:32:17.866Z,1.00
2019-04-25T01:35:00.311Z,1.10
2019-04-25T01:37:38.181Z,1.20
2019-04-25T01:40:30.150Z,1.00
2019-04-25T01:43:19.731Z,0.80
2019-04-25T01:45:51.715Z,1.13
2019-04-25T01:48:23.354Z,1.00
2019-04-25T01:50:54.554Z,0.80
2019-04-25T01:53:25.440Z,0.90
2019-04-25T01:56:01.689Z,0.83
2019-04-25T01:58:27.693Z,1.10
2019-04-25T02:00:58.588Z,1.10
2019-04-25T02:03:28.734Z,1.67
2019-04-25T02:05:59.115Z,1.67
2019-04-25T02:08:29.683Z,1.80
2019-04-25T02:11:14.185Z,1.93
2019-04-25T02:13:44.982Z,2.03
2019-04-25T02:16:15.053Z,2.87
2019-04-25T02:18:45.023Z,3.43
2019-04-25T02:21:17.396Z,3.33
2019-04-25T02:23:47.839Z,3.83
2019-04-25T02:26:18.637Z,4.50
2019-04-25T02:28:48.620Z,5.17
2019-04-25T02:31:18.539Z,5.60
2019-04-25T02:33:49.099Z,6.40
2019-04-25T02:36:27.149Z,6.43
2019-04-25T02:39:01.695Z,6.77
2019-04-25T02:41:34.349Z,7.37
2019-04-25T02:44:24.633Z,7.03
2019-04-25T02:47:16.217Z,8.00
2019-04-25T02:50:15.153Z,7.03
2019-04-25T02:52:55.581Z,6.87
2019-04-25T02:55:36.915Z,7.57
2019-04-25T02:58:08.880Z,6.97
2019-04-25T03:00:51.356Z,8.40
2019-04-25T03:03:09.270Z,7.50
2019-04-25T03:05:39.306Z,8.10
2019-04-25T03:08:10.568Z,7.90
2019-04-25T03:10:44.297Z,7.23
2019-04-25T03:13:14.993Z,7.10
2019-04-25T03:15:45.161Z,8.53
2019-04-25T03:18:19.350Z,7.70
2019-04-25T03:20:59.172Z,8.30
2019-04-25T03:23:50.541Z,7.60
2019-04-25T03:26:23.331Z,8.00
2019-04-25T03:28:53.796Z,7.77
2019-04-25T03:31:27.154Z,8.10
2019-04-25T03:33:56.427Z,8.07
2019-04-25T03:36:27.448Z,8.67
2019-04-25T03:39:00.024Z,8.17
2019-04-25T03:41:31.081Z,7.87
2019-04-25T03:44:01.629Z,8.73
2019-04-25T03:46:33.616Z,8.37
2019-04-25T03:49:23.864Z,8.57
2019-04-25T03:51:54.392Z,9.00
2019-04-25T03:54:24.726Z,8.43
2019-04-25T03:57:05.221Z,8.30
2019-04-25T03:59:35.441Z,8.67
2019-04-25T04:02:09.069Z,8.10
2019-04-25T04:04:39.187Z,7.97
2019-04-25T04:07:10.894Z,8.40
2019-04-25T04:09:46.727Z,8.97
2019-04-25T04:12:16.703Z,8.70
2019-04-25T04:14:46.773Z,8.37
2019-04-25T04:17:35.825Z,8.20
2019-04-25T04:20:25.462Z,8.73
2019-04-25T04:23:05.696Z,8.23
2019-04-25T04:25:38.600Z,8.13
2019-04-25T04:28:09.830Z,8.40
2019-04-25T04:30:45.434Z,8.10
2019-04-25T04:33:29.477Z,7.80
2019-04-25T04:35:54.009Z,6.50
2019-04-25T04:38:25.963Z,6.60
2019-04-25T04:40:55.889Z,7.20
2019-04-25T04:43:25.912Z,7.30
2019-04-25T04:45:59.949Z,7.57
2019-04-25T04:48:29.985Z,7.33
2019-04-25T04:51:03.441Z,6.90
2019-04-25T04:53:41.340Z,7.80
2019-04-25T04:56:11.401Z,7.97
2019-04-25T04:58:43.067Z,7.93
2019-04-25T05:01:21.127Z,8.60
2019-04-25T05:04:14.885Z,8.77
2019-04-25T05:06:53.622Z,8.07
2019-04-25T05:09:26.882Z,7.70
2019-04-25T05:11:57.128Z,8.40
2019-04-25T05:14:27.480Z,9.20
2019-04-25T05:16:57.584Z,8.87
2019-04-25T05:19:27.589Z,8.40
2019-04-25T05:21:57.650Z,9.00
2019-04-25T05:24:28.518Z,8.30
2019-04-25T05:26:58.532Z,8.37
2019-04-25T05:29:30.564Z,7.63
2019-04-25T05:32:00.637Z,8.60
2019-04-25T05:34:30.659Z,7.60
2019-04-25T05:37:00.605Z,6.73
2019-04-25T05:39:33.346Z,7.10
2019-04-25T05:42:17.138Z,7.57
2019-04-25T05:44:50.810Z,6.70
2019-04-25T05:47:22.577Z,6.00
2019-04-25T05:49:54.049Z,6.27
2019-04-25T05:52:25.216Z,6.20
2019-04-25T05:54:56.131Z,5.70
2019-04-25T05:57:27.204Z,6.47
2019-04-25T05:59:58.352Z,5.00
2019-04-25T06:02:28.414Z,5.13
2019-04-25T06:04:58.217Z,5.10
2019-04-25T06:07:28.237Z,4.83
2019-04-25T06:10:26.757Z,4.60
2019-04-25T06:13:14.777Z,4.17
2019-04-25T06:15:49.289Z,4.00
2019-04-25T06:18:44.556Z,3.47
2019-04-25T06:21:17.570Z,3.77
2019-04-25T06:24:16.588Z,3.63
2019-04-25T06:27:17.581Z,3.03
2019-04-25T06:29:58.117Z,3.50
2019-04-25T06:32:24.669Z,3.50
2019-04-25T06:34:55.423Z,3.17
2019-04-25T06:37:26.990Z,3.00
2019-04-25T06:39:57.449Z,3.27
2019-04-25T06:42:29.503Z,2.83
2019-04-25T06:45:04.660Z,2.63
2019-04-25T06:47:51.678Z,2.53
2019-04-25T06:50:24.533Z,2.57
2019-04-25T06:52:55.648Z,2.63
2019-04-25T06:55:27.192Z,2.63
2019-04-25T06:58:09.090Z,3.10
2019-04-25T07:00:30.700Z,2.63
2019-04-25T07:03:00.831Z,2.10
2019-04-25T07:05:35.830Z,2.33
2019-04-25T07:08:03.330Z,2.20
2019-04-25T07:10:38.637Z,2.20
2019-04-25T07:13:08.925Z,2.40
2019-04-25T07:15:39.663Z,2.23
2019-04-25T07:18:10.173Z,2.53
2019-04-25T07:20:43.194Z,2.00
2019-04-25T07:23:14.410Z,1.90
2019-04-25T07:25:51.387Z,1.87
2019-04-25T07:28:36.094Z,1.63
2019-04-25T07:31:46.378Z,1.80
2019-04-25T07:34:27.426Z,1.47
2019-04-25T07:36:57.816Z,1.80
2019-04-25T07:39:30.034Z,2.00
2019-04-25T07:42:00.077Z,1.77
2019-04-25T07:44:41.941Z,1.50
2019-04-25T07:47:04.054Z,1.53
2019-04-25T07:49:34.824Z,1.63
2019-04-25T07:52:05.169Z,2.03
2019-04-25T07:54:36.532Z,3.03
2019-04-25T07:57:07.041Z,2.03
2019-04-25T07:59:37.173Z,1.27
2019-04-25T08:02:07.126Z,1.60
2019-04-25T08:04:38.399Z,1.70
2019-04-25T08:07:09.030Z,1.47
2019-04-25T08:09:39.231Z,1.23
2019-04-25T08:12:09.586Z,1.20
2019-04-25T08:15:00.967Z,1.10
2019-04-25T08:17:50.986Z,0.97
2019-04-25T08:20:31.294Z,1.20
2019-04-25T08:23:04.109Z,0.80
2019-04-25T08:25:38.855Z,1.37
2019-04-25T08:28:06.129Z,0.70
2019-04-25T08:30:38.130Z,1.07
2019-04-25T08:33:08.396Z,1.30
2019-04-25T08:35:38.394Z,0.90
2019-04-25T08:38:08.202Z,1.00
2019-04-25T08:40:38.991Z,0.80
2019-04-25T08:43:09.417Z,0.60
2019-04-25T08:45:41.889Z,0.83
2019-04-25T08:48:13.440Z,1.00
2019-04-25T08:51:13.811Z,1.33
2019-04-25T08:53:56.056Z,1.20
2019-04-25T08:56:29.889Z,1.10
2019-04-25T08:59:17.882Z,0.77
2019-04-25T09:02:08.570Z,0.90
2019-04-25T09:05:04.116Z,0.90
2019-04-25T09:07:35.424Z,1.30
2019-04-25T09:10:06.677Z,1.00
2019-04-25T09:12:36.933Z,1.00
2019-04-25T09:15:08.961Z,0.87
2019-04-25T09:17:39.406Z,0.67
2019-04-25T09:20:09.652Z,1.20
2019-04-25T09:22:39.936Z,1.07
2019-04-25T09:25:11.072Z,1.07
2019-04-25T09:27:43.327Z,0.80
2019-04-25T09:30:20.680Z,0.80
2019-04-25T09:32:50.665Z,0.87
2019-04-25T09:35:20.705Z,0.83
2019-04-25T09:37:50.733Z,0.87
2019-04-25T09:40:20.769Z,1.53
2019-04-25T09:42:53.718Z,1.00
2019-04-25T09:45:53.270Z,0.80
2019-04-25T09:48:42.336Z,0.90
2019-04-25T09:51:20.662Z,1.50
2019-04-25T09:53:55.218Z,1.87
2019-04-25T09:56:38.291Z,1.70
2019-04-25T09:59:13.728Z,1.07
2019-04-25T10:01:48.294Z,0.97
2019-04-25T10:04:18.730Z,1.20
2019-04-25T10:06:53.472Z,1.60
2019-04-25T10:09:24.262Z,1.10
2019-04-25T10:11:56.271Z,1.00
2019-04-25T10:15:11.062Z,1.00
2019-04-25T10:17:43.919Z,2.43
2019-04-25T10:20:16.018Z,2.10
2019-04-25T10:22:46.631Z,1.60
2019-04-25T10:25:17.054Z,1.57
2019-04-25T10:27:49.310Z,1.40
2019-04-25T10:30:23.505Z,1.60
2019-04-25T10:32:53.190Z,3.83
2019-04-25T10:35:24.396Z,2.67
2019-04-25T10:37:55.110Z,2.70
2019-04-25T10:40:25.947Z,1.93
2019-04-25T10:42:59.617Z,1.80
2019-04-25T10:45:29.983Z,1.40
2019-04-25T10:48:07.538Z,1.67
2019-04-25T10:50:37.107Z,0.90
2019-04-25T10:53:07.312Z,1.07
2019-04-25T10:55:41.720Z,1.47
2019-04-25T10:58:14.105Z,1.43
2019-04-25T11:00:47.764Z,1.83
2019-04-25T11:03:44.209Z,1.00
2019-04-25T11:06:20.712Z,1.50
2019-04-25T11:11:53.648Z,1.43
2019-04-25T11:14:24.762Z,1.07
2019-04-25T11:17:04.739Z,1.90
2019-04-25T11:19:37.290Z,1.30
2019-04-25T11:22:28.217Z,1.60
2019-04-25T11:24:58.477Z,1.33
2019-04-25T11:27:28.430Z,1.33
2019-04-25T11:30:09.185Z,1.10
2019-04-25T11:32:33.921Z,2.30
2019-04-25T11:35:05.806Z,1.90
2019-04-25T11:37:36.290Z,1.80
2019-04-25T11:40:23.521Z,2.10
2019-04-25T11:42:54.542Z,1.97
2019-04-25T11:45:25.314Z,1.40
2019-04-25T11:47:58.286Z,1.23
2019-04-25T11:50:29.912Z,2.87
2019-04-25T11:53:01.012Z,1.13
2019-04-25T11:55:41.035Z,1.10
2019-04-25T11:58:11.054Z,1.07
2019-04-25T12:00:42.075Z,1.33
2019-04-25T12:03:13.599Z,0.80
2019-04-25T12:05:48.162Z,1.03
2019-04-25T12:08:18.686Z,0.90
2019-04-25T12:10:49.453Z,0.73
2019-04-25T12:13:20.738Z,0.90
2019-04-25T12:15:54.552Z,1.00
2019-04-25T12:18:26.899Z,1.07
2019-04-25T12:21:14.903Z,1.10
2019-04-25T12:23:48.756Z,1.07
2019-04-25T12:26:19.177Z,1.40
2019-04-25T12:29:08.563Z,1.83
2019-04-25T12:31:38.869Z,1.50
2019-04-25T12:34:09.709Z,1.03
2019-04-25T12:36:40.961Z,1.67
2019-04-25T12:39:11.319Z,1.20
2019-04-25T12:41:41.995Z,0.90
2019-04-25T12:44:30.269Z,0.97
2019-04-25T12:47:13.510Z,1.53
2019-04-25T12:49:43.927Z,1.20
2019-04-25T12:52:17.952Z,0.80
2019-04-25T12:54:49.183Z,0.83
2019-04-25T12:57:21.473Z,1.17
2019-04-25T12:59:54.115Z,0.90
2019-04-25T13:02:25.379Z,0.67
2019-04-25T13:04:56.769Z,0.80
2019-04-25T13:07:26.866Z,0.67
2019-04-25T13:09:57.113Z,0.70
2019-04-25T13:12:28.214Z,1.20
2019-04-25T13:15:09.815Z,1.30
2019-04-25T13:17:40.134Z,1.03
2019-04-25T13:20:10.698Z,1.30
2019-04-25T13:22:47.959Z,1.07
2019-04-25T13:25:21.709Z,0.70
2019-04-25T13:27:59.584Z,1.00
2019-04-25T13:30:59.633Z,0.80
2019-04-25T13:34:09.656Z,1.20
2019-04-25T13:36:41.000Z,0.70
2019-04-25T13:39:17.644Z,0.70
2019-04-25T13:41:47.705Z,1.30
2019-04-25T13:44:17.745Z,1.03
2019-04-25T13:46:50.408Z,0.70
2019-04-25T13:49:20.391Z,1.00
2019-04-25T13:51:50.371Z,0.83
2019-04-25T13:54:20.886Z,0.90
2019-04-25T13:56:53.359Z,1.37
2019-04-25T14:02:33.745Z,0.60
2019-04-25T14:05:05.453Z,0.90
2019-04-25T14:07:35.727Z,1.00
2019-04-25T14:10:06.523Z,1.53
2019-04-25T14:12:43.539Z,0.67
2019-04-25T14:15:19.028Z,0.90
2019-04-25T14:18:22.781Z,0.70
2019-04-25T14:21:01.229Z,0.90
2019-04-25T14:23:34.524Z,0.60
2019-04-25T14:26:05.997Z,0.70
2019-04-25T14:28:36.656Z,1.47
2019-04-25T14:31:08.074Z,0.60
2019-04-25T14:33:39.121Z,0.60
2019-04-25T14:36:09.176Z,0.90
2019-04-25T14:38:39.586Z,0.80
2019-04-25T14:41:10.010Z,1.00
2019-04-25T14:43:40.487Z,0.60
2019-04-25T14:46:10.684Z,0.70
2019-04-25T14:48:41.696Z,0.87
2019-04-25T14:51:11.691Z,0.97
2019-04-25T14:53:42.092Z,0.70
2019-04-25T14:56:23.796Z,0.90
2019-04-25T14:58:54.850Z,0.90
2019-04-25T15:01:27.994Z,0.77
2019-04-25T15:04:03.927Z,0.60
2019-04-25T15:06:34.207Z,1.20
2019-04-25T15:09:05.880Z,0.70
2019-04-25T15:11:35.958Z,0.50
2019-04-25T15:14:07.146Z,0.80
2019-04-25T15:16:37.217Z,0.80
2019-04-25T15:19:07.362Z,0.90
2019-04-25T15:21:37.871Z,0.80
2019-04-25T15:24:07.994Z,0.80
2019-04-25T15:26:40.246Z,0.93
2019-04-25T15:29:09.988Z,0.80
2019-04-25T15:31:40.310Z,0.87
2019-04-25T15:34:11.070Z,1.37
2019-04-25T15:36:50.462Z,0.70
2019-04-25T15:39:28.915Z,0.63
2019-04-25T15:42:06.406Z,0.83
2019-04-25T15:45:04.390Z,0.63
2019-04-25T15:47:35.026Z,0.70
2019-04-25T15:50:05.549Z,0.90
2019-04-25T15:52:36.038Z,1.03
2019-04-25T15:55:07.807Z,0.90
2019-04-25T15:57:38.397Z,0.73
2019-04-25T16:00:13.705Z,0.73
2019-04-25T16:02:44.238Z,0.60
2019-04-25T16:05:14.198Z,0.60
2019-04-25T16:07:44.327Z,0.87
2019-04-25T16:10:15.011Z,1.30
2019-04-25T16:12:45.301Z,0.93
2019-04-25T16:15:15.283Z,0.50
2019-04-25T16:17:47.557Z,1.03
2019-04-25T16:20:23.817Z,0.83
2019-04-25T16:22:55.099Z,1.13
2019-04-25T16:25:25.809Z,0.80
2019-04-25T16:27:56.330Z,0.80
2019-04-25T16:30:30.606Z,0.80
2019-04-25T16:33:01.877Z,1.20
2019-04-25T16:35:33.233Z,1.10
2019-04-25T16:38:03.719Z,0.90
2019-04-25T16:40:33.927Z,0.60
2019-04-25T16:43:05.774Z,0.93
2019-04-25T16:45:38.223Z,0.90
2019-04-25T16:48:16.831Z,1.00
2019-04-25T16:50:47.230Z,0.90
2019-04-25T16:53:17.453Z,0.90
2019-04-25T16:55:47.808Z,0.70
2019-04-25T16:58:18.295Z,0.73
2019-04-25T17:00:57.636Z,0.70
2019-04-25T17:03:29.924Z,0.60
2019-04-25T17:06:01.043Z,0.67
2019-04-25T17:08:32.433Z,0.60
2019-04-25T17:11:02.608Z,0.90
2019-04-25T17:13:34.141Z,0.70
2019-04-25T17:16:20.115Z,0.80
2019-04-25T17:18:57.442Z,1.00
2019-04-25T17:21:28.064Z,0.60
2019-04-25T17:23:58.462Z,0.83
2019-04-25T17:26:29.128Z,1.20
2019-04-25T17:29:01.996Z,0.80
2019-04-25T17:32:06.624Z,0.80
2019-04-25T17:34:49.537Z,1.20
2019-04-25T17:37:34.411Z,0.83
2019-04-25T17:40:11.828Z,0.80
2019-04-25T17:42:41.753Z,0.70
2019-04-25T17:45:14.801Z,0.90
2019-04-25T17:47:54.046Z,1.80
2019-04-25T17:50:17.949Z,1.07
2019-04-25T17:52:48.747Z,1.10
2019-04-25T17:55:18.850Z,1.00
2019-04-25T18:00:53.329Z,0.73
2019-04-25T18:03:29.871Z,0.90
2019-04-25T18:05:59.721Z,1.33
2019-04-25T18:08:29.750Z,0.87
2019-04-25T18:10:59.982Z,1.00
2019-04-25T18:13:30.330Z,0.80
2019-04-25T18:16:18.937Z,1.00
2019-04-25T18:18:57.569Z,0.87
2019-04-25T18:21:30.328Z,0.70
2019-04-25T18:24:24.054Z,1.90
2019-04-25T18:27:04.800Z,0.60
2019-04-25T18:29:35.958Z,0.97
2019-04-25T18:32:12.829Z,1.00
2019-04-25T18:35:04.664Z,0.90
2019-04-25T18:37:55.633Z,0.87
2019-04-25T18:40:57.030Z,0.73
2019-04-25T18:43:53.166Z,0.87
2019-04-25T18:46:27.685Z,1.00
2019-04-25T18:48:58.193Z,0.70
2019-04-25T18:51:29.742Z,0.80
2019-04-25T18:54:08.715Z,1.10
2019-04-25T18:56:47.636Z,0.73
2019-04-25T18:59:44.039Z,1.23
2019-04-25T19:02:39.818Z,0.97
2019-04-25T19:05:29.082Z,0.70
2019-04-25T19:07:59.285Z,1.20
2019-04-25T19:10:29.348Z,1.07
2019-04-25T19:13:11.794Z,0.70
2019-04-25T19:15:32.495Z,0.90
2019-04-25T19:18:02.814Z,1.13
2019-04-25T19:20:32.813Z,1.00
2019-04-25T19:23:02.860Z,1.20
2019-04-25T19:25:33.349Z,1.40
2019-04-25T19:28:03.967Z,1.60
2019-04-25T19:30:34.168Z,1.40
2019-04-25T19:33:04.446Z,1.30
2019-04-25T19:35:37.247Z,1.33
2019-04-25T19:38:07.799Z,1.27
2019-04-25T19:40:52.341Z,1.30
2019-04-25T19:43:47.345Z,1.30
2019-04-25T19:46:41.414Z,1.13
2019-04-25T19:49:14.617Z,0.90
2019-04-25T19:51:45.137Z,0.80
2019-04-25T19:54:18.950Z,0.93
2019-04-25T19:56:51.761Z,1.37
2019-04-25T19:59:40.954Z,1.07
2019-04-25T20:02:19.546Z,1.03
2019-04-25T20:04:55.458Z,1.57
2019-04-25T20:07:31.073Z,1.27
2019-04-25T20:10:24.975Z,1.20
2019-04-25T20:12:56.106Z,1.40
2019-04-25T20:15:26.219Z,1.10
2019-04-25T20:17:56.723Z,0.70
2019-04-25T20:20:26.728Z,1.13
2019-04-25T20:22:56.744Z,0.97
2019-04-25T20:25:27.549Z,0.70
2019-04-25T20:27:57.816Z,0.90
2019-04-25T20:30:29.686Z,0.90
2019-04-25T20:33:01.171Z,0.97
2019-04-25T20:35:32.562Z,0.90
2019-04-25T20:38:02.505Z,0.93
2019-04-25T20:40:32.239Z,1.00
2019-04-25T20:43:04.249Z,1.10
2019-04-25T20:45:34.548Z,0.90
2019-04-25T20:48:04.882Z,1.00
2019-04-25T20:50:34.729Z,0.93
2019-04-25T20:53:04.292Z,0.90
2019-04-25T20:55:34.854Z,1.07
2019-04-25T20:58:04.332Z,1.20
2019-04-25T21:00:44.906Z,1.00
2019-04-25T21:03:14.995Z,0.90
2019-04-25T21:05:45.892Z,0.77
2019-04-25T21:08:15.814Z,0.90
2019-04-25T21:10:45.401Z,0.80
2019-04-25T21:13:24.904Z,0.60
2019-04-25T21:16:08.428Z,1.00
2019-04-25T21:18:57.818Z,1.10
2019-04-25T21:21:29.462Z,1.03
2019-04-25T21:23:59.117Z,1.00
2019-04-25T21:26:28.494Z,1.20
2019-04-25T21:28:58.477Z,1.43
2019-04-25T21:31:28.190Z,1.10
2019-04-25T21:33:59.440Z,1.07
2019-04-25T21:36:29.081Z,1.20
2019-04-25T21:38:59.828Z,1.10
2019-04-25T21:41:58.232Z,1.10
2019-04-25T21:44:28.674Z,1.27
2019-04-25T21:46:58.637Z,1.63
2019-04-25T21:49:29.362Z,1.70
2019-04-25T21:51:59.156Z,1.50
2019-04-25T21:54:29.404Z,1.87
2019-04-25T21:57:00.063Z,2.00
2019-04-25T21:59:30.211Z,1.70
2019-04-25T22:02:00.229Z,1.53
2019-04-25T22:04:38.567Z,1.90
2019-04-25T22:07:01.957Z,2.37
2019-04-25T22:09:33.047Z,1.50
2019-04-25T22:12:05.242Z,1.63
2019-04-25T22:14:35.432Z,1.30
2019-04-25T22:17:06.828Z,1.17
2019-04-25T22:19:38.473Z,0.80
2019-04-25T22:22:08.315Z,1.10
2019-04-25T22:24:38.297Z,0.80
2019-04-25T22:27:13.266Z,1.07
2019-04-25T22:29:44.480Z,0.90
2019-04-25T22:32:25.881Z,1.10
2019-04-25T22:35:03.950Z,1.17
2019-04-25T22:37:34.143Z,1.00
2019-04-25T22:40:05.421Z,0.90
2019-04-25T22:42:35.582Z,1.00
2019-04-25T22:45:06.626Z,0.90
2019-04-25T22:47:37.373Z,0.80
2019-04-25T22:50:08.578Z,1.03
2019-04-25T22:52:41.202Z,0.90
2019-04-25T22:55:11.512Z,0.80
2019-04-25T22:57:43.367Z,1.00
2019-04-25T23:00:23.595Z,0.90
2019-04-25T23:03:02.307Z,1.00
2019-04-25T23:05:48.752Z,0.90
2019-04-25T23:08:18.801Z,0.90
2019-04-25T23:10:48.906Z,0.87
2019-04-25T23:13:18.606Z,1.27
2019-04-25T23:15:48.620Z,0.97
2019-04-25T23:18:19.575Z,1.30
2019-04-25T23:20:49.654Z,1.00
2019-04-25T23:23:19.854Z,1.30
2019-04-25T23:26:07.927Z,1.47
2019-04-25T23:28:40.302Z,1.33
2019-04-25T23:31:14.729Z,1.33
2019-04-25T23:33:44.917Z,1.07
2019-04-25T23:36:15.443Z,1.30
2019-04-25T23:38:46.041Z,1.00
2019-04-25T23:41:16.744Z,1.10
2019-04-25T23:43:47.769Z,1.40
2019-04-25T23:46:18.735Z,0.90
2019-04-25T23:48:48.812Z,1.07
2019-04-25T23:51:19.013Z,1.20
2019-04-25T23:53:49.021Z,1.30
2019-04-25T23:56:19.333Z,1.07
2019-04-25T23:58:49.874Z,0.80
